Terminal Aerodrome Forecast
Issued by NWS Mt. Holly, NJ

Home | Current Version | Previous Version | Text Only | Print | Product List | Glossary On
Versions: 1 2 3 4 5 6 7 8 9 10 11 12 13 14 15 16 17 18 19 20 21
000
FTUS41 KPHI 262132 AAC
TAFRDG
TAF AMD
KRDG 262132Z 2622/2718 18012G19KT P6SM BKN015 OVC024
      TEMPO 2622/2624 33015G28KT 2SM +TSRA BR OVC008CB
     FM270000 30012KT 4SM -SHRA BR OVC008
     FM270500 33010KT P6SM -SHRA OVC020
     FM270800 32006KT 4SM -RA OVC011 PROB30 2709/2713 2SM -RASN
      OVC008
     FM271300 34007KT P6SM BKN050 BKN100=

USA.gov is the U.S. government's official web portal to all federal, state and local government web resources and services.